sensor_id;sensor_type;location;lat;lon;timestamp;temperature;humidity
29775;DHT22;16676;51.202;6.774;2022-12-08T00:01:05;15.20;84.00
29775;DHT22;16676;51.202;6.774;2022-12-08T00:05:08;15.20;83.90
29775;DHT22;16676;51.202;6.774;2022-12-08T00:09:33;15.30;83.80
29775;DHT22;16676;51.202;6.774;2022-12-08T00:13:35;15.20;83.70
29775;DHT22;16676;51.202;6.774;2022-12-08T00:17:38;15.30;83.50
29775;DHT22;16676;51.202;6.774;2022-12-08T00:21:40;15.30;83.10
29775;DHT22;16676;51.202;6.774;2022-12-08T00:25:42;15.40;82.90
29775;DHT22;16676;51.202;6.774;2022-12-08T00:29:44;15.30;83.00
29775;DHT22;16676;51.202;6.774;2022-12-08T00:33:47;15.30;82.90
29775;DHT22;16676;51.202;6.774;2022-12-08T00:37:49;15.20;82.80
29775;DHT22;16676;51.202;6.774;2022-12-08T00:41:51;15.30;82.70
29775;DHT22;16676;51.202;6.774;2022-12-08T00:46:10;15.40;82.20
29775;DHT22;16676;51.202;6.774;2022-12-08T00:50:14;15.30;82.20
29775;DHT22;16676;51.202;6.774;2022-12-08T00:54:16;15.30;82.20
29775;DHT22;16676;51.202;6.774;2022-12-08T00:58:18;15.40;82.10
29775;DHT22;16676;51.202;6.774;2022-12-08T01:02:20;15.40;81.70
29775;DHT22;16676;51.202;6.774;2022-12-08T01:06:23;15.40;81.50
29775;DHT22;16676;51.202;6.774;2022-12-08T01:10:25;15.40;81.60
29775;DHT22;16676;51.202;6.774;2022-12-08T01:14:27;15.40;81.40
29775;DHT22;16676;51.202;6.774;2022-12-08T01:18:29;15.40;81.40
29775;DHT22;16676;51.202;6.774;2022-12-08T01:22:34;15.40;81.00
29775;DHT22;16676;51.202;6.774;2022-12-08T01:26:36;15.40;81.10
29775;DHT22;16676;51.202;6.774;2022-12-08T01:30:38;15.40;81.20
29775;DHT22;16676;51.202;6.774;2022-12-08T01:34:40;15.40;81.10
29775;DHT22;16676;51.202;6.774;2022-12-08T01:38:43;15.40;81.10
29775;DHT22;16676;51.202;6.774;2022-12-08T01:42:45;15.40;81.00
29775;DHT22;16676;51.202;6.774;2022-12-08T01:46:47;15.40;81.00
29775;DHT22;16676;51.202;6.774;2022-12-08T01:50:50;15.30;81.00
29775;DHT22;16676;51.202;6.774;2022-12-08T01:54:57;15.30;81.00
29775;DHT22;16676;51.202;6.774;2022-12-08T01:59:00;15.30;80.90
29775;DHT22;16676;51.202;6.774;2022-12-08T02:03:04;15.30;80.80
29775;DHT22;16676;51.202;6.774;2022-12-08T02:07:07;15.30;80.90
29775;DHT22;16676;51.202;6.774;2022-12-08T02:11:12;15.30;80.80
29775;DHT22;16676;51.202;6.774;2022-12-08T02:15:14;15.30;80.70
29775;DHT22;16676;51.202;6.774;2022-12-08T02:19:40;15.30;80.90
29775;DHT22;16676;51.202;6.774;2022-12-08T02:23:55;15.30;81.00
29775;DHT22;16676;51.202;6.774;2022-12-08T02:28:15;15.30;81.60
29775;DHT22;16676;51.202;6.774;2022-12-08T02:32:36;15.30;80.70
29775;DHT22;16676;51.202;6.774;2022-12-08T02:36:49;15.30;80.80
29775;DHT22;16676;51.202;6.774;2022-12-08T02:41:03;15.30;80.80
29775;DHT22;16676;51.202;6.774;2022-12-08T02:45:10;15.30;80.90
29775;DHT22;16676;51.202;6.774;2022-12-08T02:49:13;15.30;80.80
29775;DHT22;16676;51.202;6.774;2022-12-08T02:53:17;15.30;80.70
29775;DHT22;16676;51.202;6.774;2022-12-08T02:57:27;15.30;80.50
29775;DHT22;16676;51.202;6.774;2022-12-08T03:01:45;15.30;80.70
29775;DHT22;16676;51.202;6.774;2022-12-08T03:05:56;15.20;80.60
29775;DHT22;16676;51.202;6.774;2022-12-08T03:10:08;15.30;80.80
29775;DHT22;16676;51.202;6.774;2022-12-08T03:14:14;15.20;80.70
29775;DHT22;16676;51.202;6.774;2022-12-08T03:18:19;15.20;80.70
29775;DHT22;16676;51.202;6.774;2022-12-08T03:22:24;15.20;80.70
29775;DHT22;16676;51.202;6.774;2022-12-08T03:26:33;15.20;80.50
29775;DHT22;16676;51.202;6.774;2022-12-08T03:30:38;15.20;80.50
29775;DHT22;16676;51.202;6.774;2022-12-08T03:34:43;15.20;80.60
29775;DHT22;16676;51.202;6.774;2022-12-08T03:38:50;15.20;80.50
29775;DHT22;16676;51.202;6.774;2022-12-08T03:42:54;15.20;80.40
29775;DHT22;16676;51.202;6.774;2022-12-08T03:46:56;15.20;80.60
29775;DHT22;16676;51.202;6.774;2022-12-08T03:50:58;15.20;80.60
29775;DHT22;16676;51.202;6.774;2022-12-08T03:55:00;15.20;80.60
29775;DHT22;16676;51.202;6.774;2022-12-08T03:59:04;15.10;80.80
29775;DHT22;16676;51.202;6.774;2022-12-08T04:03:06;15.10;80.40
29775;DHT22;16676;51.202;6.774;2022-12-08T04:07:08;15.20;80.50
29775;DHT22;16676;51.202;6.774;2022-12-08T04:11:10;15.20;80.40
29775;DHT22;16676;51.202;6.774;2022-12-08T04:15:14;15.20;80.30
29775;DHT22;16676;51.202;6.774;2022-12-08T04:19:15;15.20;80.40
29775;DHT22;16676;51.202;6.774;2022-12-08T04:23:17;15.20;80.30
29775;DHT22;16676;51.202;6.774;2022-12-08T04:27:19;15.20;80.30
29775;DHT22;16676;51.202;6.774;2022-12-08T04:31:22;15.10;80.20
29775;DHT22;16676;51.202;6.774;2022-12-08T04:35:24;15.10;80.30
29775;DHT22;16676;51.202;6.774;2022-12-08T04:39:26;15.10;80.20
29775;DHT22;16676;51.202;6.774;2022-12-08T04:43:28;15.20;80.40
29775;DHT22;16676;51.202;6.774;2022-12-08T04:47:32;15.10;80.20
29775;DHT22;16676;51.202;6.774;2022-12-08T04:51:34;15.10;80.30
29775;DHT22;16676;51.202;6.774;2022-12-08T04:55:37;15.10;80.20
29775;DHT22;16676;51.202;6.774;2022-12-08T04:59:39;15.10;80.20
29775;DHT22;16676;51.202;6.774;2022-12-08T05:03:43;15.10;80.20
29775;DHT22;16676;51.202;6.774;2022-12-08T05:07:44;15.10;80.50
29775;DHT22;16676;51.202;6.774;2022-12-08T05:11:46;15.00;80.90
29775;DHT22;16676;51.202;6.774;2022-12-08T05:15:48;14.90;81.50
29775;DHT22;16676;51.202;6.774;2022-12-08T05:19:52;14.90;81.70
29775;DHT22;16676;51.202;6.774;2022-12-08T05:23:54;14.90;81.80
29775;DHT22;16676;51.202;6.774;2022-12-08T05:27:55;14.90;81.70
29775;DHT22;16676;51.202;6.774;2022-12-08T05:31:57;14.90;81.50
29775;DHT22;16676;51.202;6.774;2022-12-08T05:36:00;15.00;81.60
29775;DHT22;16676;51.202;6.774;2022-12-08T05:40:03;15.00;81.50
29775;DHT22;16676;51.202;6.774;2022-12-08T05:44:05;14.90;81.60
29775;DHT22;16676;51.202;6.774;2022-12-08T05:48:07;15.00;81.60
29775;DHT22;16676;51.202;6.774;2022-12-08T05:52:10;15.00;81.20
29775;DHT22;16676;51.202;6.774;2022-12-08T05:56:13;15.00;80.90
29775;DHT22;16676;51.202;6.774;2022-12-08T06:00:15;15.00;80.90
29775;DHT22;16676;51.202;6.774;2022-12-08T06:04:17;15.00;81.10
29775;DHT22;16676;51.202;6.774;2022-12-08T06:08:20;15.00;80.80
29775;DHT22;16676;51.202;6.774;2022-12-08T06:12:22;15.00;80.60
29775;DHT22;16676;51.202;6.774;2022-12-08T06:16:25;15.00;80.60
29775;DHT22;16676;51.202;6.774;2022-12-08T06:20:28;15.00;80.40
29775;DHT22;16676;51.202;6.774;2022-12-08T06:24:31;15.00;80.40
29775;DHT22;16676;51.202;6.774;2022-12-08T06:28:34;15.00;80.10
29775;DHT22;16676;51.202;6.774;2022-12-08T06:32:36;15.00;80.30
29775;DHT22;16676;51.202;6.774;2022-12-08T06:36:38;15.00;80.10
29775;DHT22;16676;51.202;6.774;2022-12-08T06:40:41;15.00;80.30
29775;DHT22;16676;51.202;6.774;2022-12-08T06:44:43;14.90;81.10
29775;DHT22;16676;51.202;6.774;2022-12-08T06:48:45;14.80;81.80
29775;DHT22;16676;51.202;6.774;2022-12-08T06:52:47;14.90;81.50
29775;DHT22;16676;51.202;6.774;2022-12-08T06:56:50;15.00;80.70
29775;DHT22;16676;51.202;6.774;2022-12-08T07:00:52;15.10;80.50
29775;DHT22;16676;51.202;6.774;2022-12-08T07:04:54;15.10;80.00
29775;DHT22;16676;51.202;6.774;2022-12-08T07:08:56;15.20;80.20
29775;DHT22;16676;51.202;6.774;2022-12-08T07:12:59;15.10;80.40
29775;DHT22;16676;51.202;6.774;2022-12-08T07:17:01;15.10;80.50
29775;DHT22;16676;51.202;6.774;2022-12-08T07:21:04;15.00;80.80
29775;DHT22;16676;51.202;6.774;2022-12-08T07:25:07;14.90;81.40
29775;DHT22;16676;51.202;6.774;2022-12-08T07:29:10;14.90;81.80
29775;DHT22;16676;51.202;6.774;2022-12-08T07:33:12;14.80;81.90
29775;DHT22;16676;51.202;6.774;2022-12-08T07:37:14;14.80;81.90
29775;DHT22;16676;51.202;6.774;2022-12-08T07:41:18;14.80;81.80
29775;DHT22;16676;51.202;6.774;2022-12-08T07:45:22;14.80;81.50
29775;DHT22;16676;51.202;6.774;2022-12-08T07:49:23;14.90;81.60
29775;DHT22;16676;51.202;6.774;2022-12-08T07:53:25;14.90;81.50
29775;DHT22;16676;51.202;6.774;2022-12-08T07:57:27;14.90;82.40
29775;DHT22;16676;51.202;6.774;2022-12-08T08:01:32;14.90;82.30
29775;DHT22;16676;51.202;6.774;2022-12-08T08:05:35;14.80;82.60
29775;DHT22;16676;51.202;6.774;2022-12-08T08:09:37;14.30;69.30
29775;DHT22;16676;51.202;6.774;2022-12-08T08:13:39;13.50;67.50
29775;DHT22;16676;51.202;6.774;2022-12-08T08:17:42;13.50;73.10
29775;DHT22;16676;51.202;6.774;2022-12-08T08:21:44;14.40;71.90
29775;DHT22;16676;51.202;6.774;2022-12-08T08:25:46;15.20;70.80
29775;DHT22;16676;51.202;6.774;2022-12-08T08:29:48;15.90;70.60
29775;DHT22;16676;51.202;6.774;2022-12-08T08:33:51;16.40;69.60
29775;DHT22;16676;51.202;6.774;2022-12-08T08:37:53;16.80;69.60
29775;DHT22;16676;51.202;6.774;2022-12-08T08:41:56;17.20;70.20
29775;DHT22;16676;51.202;6.774;2022-12-08T08:45:58;17.40;69.20
29775;DHT22;16676;51.202;6.774;2022-12-08T08:50:02;17.60;69.40
29775;DHT22;16676;51.202;6.774;2022-12-08T08:54:04;17.80;69.60
29775;DHT22;16676;51.202;6.774;2022-12-08T08:58:06;17.80;69.70
29775;DHT22;16676;51.202;6.774;2022-12-08T09:02:15;17.90;70.00
29775;DHT22;16676;51.202;6.774;2022-12-08T09:06:19;18.00;70.10
29775;DHT22;16676;51.202;6.774;2022-12-08T09:10:21;18.00;70.30
29775;DHT22;16676;51.202;6.774;2022-12-08T09:14:23;18.00;70.30
29775;DHT22;16676;51.202;6.774;2022-12-08T09:18:25;18.00;70.50
29775;DHT22;16676;51.202;6.774;2022-12-08T09:22:28;18.10;70.60
29775;DHT22;16676;51.202;6.774;2022-12-08T09:26:30;18.10;70.80
29775;DHT22;16676;51.202;6.774;2022-12-08T09:30:32;18.10;70.90
29775;DHT22;16676;51.202;6.774;2022-12-08T09:34:34;18.10;71.10
29775;DHT22;16676;51.202;6.774;2022-12-08T09:38:38;18.10;71.30
29775;DHT22;16676;51.202;6.774;2022-12-08T09:42:43;18.10;72.10
29775;DHT22;16676;51.202;6.774;2022-12-08T09:46:51;18.10;71.60
29775;DHT22;16676;51.202;6.774;2022-12-08T09:50:55;18.10;71.70
29775;DHT22;16676;51.202;6.774;2022-12-08T09:55:02;18.10;72.00
29775;DHT22;16676;51.202;6.774;2022-12-08T09:59:16;18.00;72.10
29775;DHT22;16676;51.202;6.774;2022-12-08T10:03:26;18.00;72.30
29775;DHT22;16676;51.202;6.774;2022-12-08T10:07:36;18.00;72.50
29775;DHT22;16676;51.202;6.774;2022-12-08T10:11:46;17.90;72.70
29775;DHT22;16676;51.202;6.774;2022-12-08T10:15:57;18.00;72.90
29775;DHT22;16676;51.202;6.774;2022-12-08T10:20:10;18.00;73.20
29775;DHT22;16676;51.202;6.774;2022-12-08T10:24:20;17.90;73.20
29775;DHT22;16676;51.202;6.774;2022-12-08T10:28:24;17.90;73.40
29775;DHT22;16676;51.202;6.774;2022-12-08T10:32:33;17.90;73.60
29775;DHT22;16676;51.202;6.774;2022-12-08T10:36:50;17.90;73.70
29775;DHT22;16676;51.202;6.774;2022-12-08T10:40:58;17.80;73.90
29775;DHT22;16676;51.202;6.774;2022-12-08T10:45:23;17.80;74.00
29775;DHT22;16676;51.202;6.774;2022-12-08T10:49:30;17.80;74.10
29775;DHT22;16676;51.202;6.774;2022-12-08T10:53:44;17.70;74.50
29775;DHT22;16676;51.202;6.774;2022-12-08T10:57:46;17.60;74.70
29775;DHT22;16676;51.202;6.774;2022-12-08T11:01:52;17.60;74.90
29775;DHT22;16676;51.202;6.774;2022-12-08T11:05:59;17.60;75.10
29775;DHT22;16676;51.202;6.774;2022-12-08T11:10:01;17.60;75.20
29775;DHT22;16676;51.202;6.774;2022-12-08T11:14:06;17.50;75.40
29775;DHT22;16676;51.202;6.774;2022-12-08T11:18:21;17.40;76.10
29775;DHT22;16676;51.202;6.774;2022-12-08T11:22:26;17.20;77.20
29775;DHT22;16676;51.202;6.774;2022-12-08T11:26:30;17.10;77.90
29775;DHT22;16676;51.202;6.774;2022-12-08T11:30:35;17.00;78.20
29775;DHT22;16676;51.202;6.774;2022-12-08T11:34:41;17.00;78.50
29775;DHT22;16676;51.202;6.774;2022-12-08T11:38:46;17.00;78.40
29775;DHT22;16676;51.202;6.774;2022-12-08T11:42:53;17.00;78.60
29775;DHT22;16676;51.202;6.774;2022-12-08T11:46:59;17.00;79.00
29775;DHT22;16676;51.202;6.774;2022-12-08T11:51:11;17.00;79.10
29775;DHT22;16676;51.202;6.774;2022-12-08T11:55:28;17.00;78.50
29775;DHT22;16676;51.202;6.774;2022-12-08T11:59:33;17.00;78.70
29775;DHT22;16676;51.202;6.774;2022-12-08T12:03:40;17.00;78.70
29775;DHT22;16676;51.202;6.774;2022-12-08T12:08:02;17.00;78.60
29775;DHT22;16676;51.202;6.774;2022-12-08T12:12:15;17.00;78.50
29775;DHT22;16676;51.202;6.774;2022-12-08T12:16:47;17.00;78.50
29775;DHT22;16676;51.202;6.774;2022-12-08T12:20:55;17.00;78.50
29775;DHT22;16676;51.202;6.774;2022-12-08T12:24:59;17.00;78.20
29775;DHT22;16676;51.202;6.774;2022-12-08T12:29:04;16.90;77.90
29775;DHT22;16676;51.202;6.774;2022-12-08T12:33:07;16.90;78.20
29775;DHT22;16676;51.202;6.774;2022-12-08T12:37:16;16.80;78.40
29775;DHT22;16676;51.202;6.774;2022-12-08T12:41:23;16.80;78.40
29775;DHT22;16676;51.202;6.774;2022-12-08T12:45:29;16.70;78.40
29775;DHT22;16676;51.202;6.774;2022-12-08T12:50:03;16.70;78.20
29775;DHT22;16676;51.202;6.774;2022-12-08T12:54:20;16.70;72.10
29775;DHT22;16676;51.202;6.774;2022-12-08T12:58:47;16.60;72.50
29775;DHT22;16676;51.202;6.774;2022-12-08T13:02:55;16.40;73.70
29775;DHT22;16676;51.202;6.774;2022-12-08T13:06:58;16.50;74.10
29775;DHT22;16676;51.202;6.774;2022-12-08T13:11:02;16.50;74.90
29775;DHT22;16676;51.202;6.774;2022-12-08T13:15:15;16.50;75.50
29775;DHT22;16676;51.202;6.774;2022-12-08T13:19:19;16.60;76.00
29775;DHT22;16676;51.202;6.774;2022-12-08T13:23:28;16.60;76.30
29775;DHT22;16676;51.202;6.774;2022-12-08T13:27:32;16.60;76.50
29775;DHT22;16676;51.202;6.774;2022-12-08T13:31:37;16.70;76.90
29775;DHT22;16676;51.202;6.774;2022-12-08T13:35:45;16.60;77.10
29775;DHT22;16676;51.202;6.774;2022-12-08T13:39:51;16.60;77.50
29775;DHT22;16676;51.202;6.774;2022-12-08T13:43:58;16.60;77.60
29775;DHT22;16676;51.202;6.774;2022-12-08T13:48:04;16.70;77.70
29775;DHT22;16676;51.202;6.774;2022-12-08T13:52:13;16.70;77.80
29775;DHT22;16676;51.202;6.774;2022-12-08T13:56:16;16.70;78.10
29775;DHT22;16676;51.202;6.774;2022-12-08T14:00:21;16.60;78.30
29775;DHT22;16676;51.202;6.774;2022-12-08T14:04:25;16.70;78.40
29775;DHT22;16676;51.202;6.774;2022-12-08T14:08:29;16.60;78.50
29775;DHT22;16676;51.202;6.774;2022-12-08T14:12:32;16.60;78.60
29775;DHT22;16676;51.202;6.774;2022-12-08T14:16:38;16.70;78.30
29775;DHT22;16676;51.202;6.774;2022-12-08T14:20:41;17.00;77.50
29775;DHT22;16676;51.202;6.774;2022-12-08T14:24:44;17.70;75.30
29775;DHT22;16676;51.202;6.774;2022-12-08T14:28:48;18.00;73.70
29775;DHT22;16676;51.202;6.774;2022-12-08T14:32:53;18.10;71.40
29775;DHT22;16676;51.202;6.774;2022-12-08T14:36:57;18.20;69.80
29775;DHT22;16676;51.202;6.774;2022-12-08T14:41:01;18.30;69.60
29775;DHT22;16676;51.202;6.774;2022-12-08T14:45:09;18.30;69.00
29775;DHT22;16676;51.202;6.774;2022-12-08T14:49:36;18.30;68.70
29775;DHT22;16676;51.202;6.774;2022-12-08T14:53:41;18.30;68.70
29775;DHT22;16676;51.202;6.774;2022-12-08T14:57:47;18.30;68.80
29775;DHT22;16676;51.202;6.774;2022-12-08T15:01:51;18.30;68.80
29775;DHT22;16676;51.202;6.774;2022-12-08T15:05:56;18.30;68.20
29775;DHT22;16676;51.202;6.774;2022-12-08T15:10:18;18.30;68.40
29775;DHT22;16676;51.202;6.774;2022-12-08T15:14:27;18.30;68.50
29775;DHT22;16676;51.202;6.774;2022-12-08T15:18:35;18.20;69.00
29775;DHT22;16676;51.202;6.774;2022-12-08T15:22:38;18.20;69.00
29775;DHT22;16676;51.202;6.774;2022-12-08T15:26:44;18.10;69.10
29775;DHT22;16676;51.202;6.774;2022-12-08T15:30:47;18.10;69.00
29775;DHT22;16676;51.202;6.774;2022-12-08T15:34:49;18.00;69.00
29775;DHT22;16676;51.202;6.774;2022-12-08T15:38:51;18.00;69.90
29775;DHT22;16676;51.202;6.774;2022-12-08T15:42:54;18.10;69.30
29775;DHT22;16676;51.202;6.774;2022-12-08T15:46:57;18.00;69.10
29775;DHT22;16676;51.202;6.774;2022-12-08T15:50:59;18.00;70.60
29775;DHT22;16676;51.202;6.774;2022-12-08T15:55:01;18.00;69.70
29775;DHT22;16676;51.202;6.774;2022-12-08T15:59:05;18.00;69.70
29775;DHT22;16676;51.202;6.774;2022-12-08T16:03:18;17.90;69.80
29775;DHT22;16676;51.202;6.774;2022-12-08T16:07:22;17.90;69.70
29775;DHT22;16676;51.202;6.774;2022-12-08T16:11:25;17.90;70.10
29775;DHT22;16676;51.202;6.774;2022-12-08T16:15:46;17.80;70.30
29775;DHT22;16676;51.202;6.774;2022-12-08T16:19:48;17.80;70.60
29775;DHT22;16676;51.202;6.774;2022-12-08T16:23:50;17.80;70.80
29775;DHT22;16676;51.202;6.774;2022-12-08T16:27:53;17.70;71.10
29775;DHT22;16676;51.202;6.774;2022-12-08T16:31:57;17.70;70.80
29775;DHT22;16676;51.202;6.774;2022-12-08T16:35:58;17.60;71.30
29775;DHT22;16676;51.202;6.774;2022-12-08T16:40:01;17.60;71.20
29775;DHT22;16676;51.202;6.774;2022-12-08T16:44:04;17.60;71.00
29775;DHT22;16676;51.202;6.774;2022-12-08T16:48:13;17.60;71.40
29775;DHT22;16676;51.202;6.774;2022-12-08T16:52:16;17.50;71.30
29775;DHT22;16676;51.202;6.774;2022-12-08T16:56:19;17.50;71.40
29775;DHT22;16676;51.202;6.774;2022-12-08T17:00:23;17.50;71.80
29775;DHT22;16676;51.202;6.774;2022-12-08T17:04:27;17.50;72.10
29775;DHT22;16676;51.202;6.774;2022-12-08T17:08:30;17.50;71.90
29775;DHT22;16676;51.202;6.774;2022-12-08T17:12:32;17.40;71.80
29775;DHT22;16676;51.202;6.774;2022-12-08T17:16:35;17.40;72.00
29775;DHT22;16676;51.202;6.774;2022-12-08T17:20:38;17.40;72.00
29775;DHT22;16676;51.202;6.774;2022-12-08T17:24:40;17.40;72.50
29775;DHT22;16676;51.202;6.774;2022-12-08T17:28:42;17.40;72.50
29775;DHT22;16676;51.202;6.774;2022-12-08T17:32:44;17.30;72.50
29775;DHT22;16676;51.202;6.774;2022-12-08T17:36:48;17.30;73.10
29775;DHT22;16676;51.202;6.774;2022-12-08T17:40:50;17.20;73.20
29775;DHT22;16676;51.202;6.774;2022-12-08T17:44:52;17.20;73.20
29775;DHT22;16676;51.202;6.774;2022-12-08T17:48:54;17.20;73.30
29775;DHT22;16676;51.202;6.774;2022-12-08T17:52:57;17.10;73.40
29775;DHT22;16676;51.202;6.774;2022-12-08T17:56:59;17.10;73.30
29775;DHT22;16676;51.202;6.774;2022-12-08T18:01:06;17.00;73.40
29775;DHT22;16676;51.202;6.774;2022-12-08T18:05:08;17.00;73.60
29775;DHT22;16676;51.202;6.774;2022-12-08T18:09:12;17.00;73.60
29775;DHT22;16676;51.202;6.774;2022-12-08T18:13:14;16.60;65.00
29775;DHT22;16676;51.202;6.774;2022-12-08T18:17:16;15.40;56.10
29775;DHT22;16676;51.202;6.774;2022-12-08T18:21:18;15.60;66.10
29775;DHT22;16676;51.202;6.774;2022-12-08T18:25:21;16.20;62.90
29775;DHT22;16676;51.202;6.774;2022-12-08T18:29:24;16.80;64.60
29775;DHT22;16676;51.202;6.774;2022-12-08T18:33:26;17.20;64.10
29775;DHT22;16676;51.202;6.774;2022-12-08T18:37:28;17.50;64.30
29775;DHT22;16676;51.202;6.774;2022-12-08T18:41:31;17.80;64.30
29775;DHT22;16676;51.202;6.774;2022-12-08T18:45:33;18.00;64.20
29775;DHT22;16676;51.202;6.774;2022-12-08T18:49:36;18.10;64.30
29775;DHT22;16676;51.202;6.774;2022-12-08T18:53:38;18.10;64.40
29775;DHT22;16676;51.202;6.774;2022-12-08T18:57:42;18.20;64.30
29775;DHT22;16676;51.202;6.774;2022-12-08T19:01:44;18.30;64.50
29775;DHT22;16676;51.202;6.774;2022-12-08T19:05:45;18.30;64.60
29775;DHT22;16676;51.202;6.774;2022-12-08T19:09:47;18.30;64.90
29775;DHT22;16676;51.202;6.774;2022-12-08T19:13:52;18.30;64.90
29775;DHT22;16676;51.202;6.774;2022-12-08T19:17:54;18.40;65.30
29775;DHT22;16676;51.202;6.774;2022-12-08T19:21:56;18.30;65.60
29775;DHT22;16676;51.202;6.774;2022-12-08T19:25:59;18.30;65.90
29775;DHT22;16676;51.202;6.774;2022-12-08T19:30:04;18.30;66.20
29775;DHT22;16676;51.202;6.774;2022-12-08T19:34:07;18.20;66.30
29775;DHT22;16676;51.202;6.774;2022-12-08T19:38:10;18.30;66.40
29775;DHT22;16676;51.202;6.774;2022-12-08T19:42:13;18.20;66.60
29775;DHT22;16676;51.202;6.774;2022-12-08T19:46:35;18.20;66.80
29775;DHT22;16676;51.202;6.774;2022-12-08T19:50:38;18.10;66.90
29775;DHT22;16676;51.202;6.774;2022-12-08T19:54:40;18.10;67.10
29775;DHT22;16676;51.202;6.774;2022-12-08T19:58:42;18.00;67.30
29775;DHT22;16676;51.202;6.774;2022-12-08T20:02:46;18.00;68.20
29775;DHT22;16676;51.202;6.774;2022-12-08T20:06:49;17.90;67.50
29775;DHT22;16676;51.202;6.774;2022-12-08T20:10:51;17.90;67.70
29775;DHT22;16676;51.202;6.774;2022-12-08T20:14:55;17.90;68.10
29775;DHT22;16676;51.202;6.774;2022-12-08T20:18:58;17.80;68.20
29775;DHT22;16676;51.202;6.774;2022-12-08T20:23:00;17.80;68.30
29775;DHT22;16676;51.202;6.774;2022-12-08T20:27:02;17.80;68.40
29775;DHT22;16676;51.202;6.774;2022-12-08T20:31:05;17.70;68.50
29775;DHT22;16676;51.202;6.774;2022-12-08T20:35:08;17.70;68.60
29775;DHT22;16676;51.202;6.774;2022-12-08T20:39:11;17.70;68.80
29775;DHT22;16676;51.202;6.774;2022-12-08T20:43:14;17.60;68.90
29775;DHT22;16676;51.202;6.774;2022-12-08T20:47:16;17.60;69.00
29775;DHT22;16676;51.202;6.774;2022-12-08T20:51:19;17.60;69.10
29775;DHT22;16676;51.202;6.774;2022-12-08T20:55:21;17.50;69.30
29775;DHT22;16676;51.202;6.774;2022-12-08T20:59:23;17.50;69.40
29775;DHT22;16676;51.202;6.774;2022-12-08T21:03:26;17.50;69.60
29775;DHT22;16676;51.202;6.774;2022-12-08T21:07:29;17.40;69.50
29775;DHT22;16676;51.202;6.774;2022-12-08T21:11:33;17.40;69.60
29775;DHT22;16676;51.202;6.774;2022-12-08T21:15:35;17.40;69.90
29775;DHT22;16676;51.202;6.774;2022-12-08T21:19:37;17.40;70.20
29775;DHT22;16676;51.202;6.774;2022-12-08T21:23:41;17.30;70.50
29775;DHT22;16676;51.202;6.774;2022-12-08T21:27:43;17.30;70.60
29775;DHT22;16676;51.202;6.774;2022-12-08T21:31:45;17.30;70.60
29775;DHT22;16676;51.202;6.774;2022-12-08T21:35:47;17.30;70.80
29775;DHT22;16676;51.202;6.774;2022-12-08T21:39:50;17.20;70.90
29775;DHT22;16676;51.202;6.774;2022-12-08T21:43:52;17.20;71.10
29775;DHT22;16676;51.202;6.774;2022-12-08T21:47:56;17.20;71.20
29775;DHT22;16676;51.202;6.774;2022-12-08T21:51:58;17.10;71.30
29775;DHT22;16676;51.202;6.774;2022-12-08T21:56:06;17.10;71.50
29775;DHT22;16676;51.202;6.774;2022-12-08T22:00:12;17.10;71.80
29775;DHT22;16676;51.202;6.774;2022-12-08T22:04:16;17.00;71.80
29775;DHT22;16676;51.202;6.774;2022-12-08T22:08:18;17.00;71.90
29775;DHT22;16676;51.202;6.774;2022-12-08T22:12:21;17.00;72.00
29775;DHT22;16676;51.202;6.774;2022-12-08T22:16:23;17.00;72.20
29775;DHT22;16676;51.202;6.774;2022-12-08T22:20:25;16.90;72.20
29775;DHT22;16676;51.202;6.774;2022-12-08T22:24:28;16.90;72.40
29775;DHT22;16676;51.202;6.774;2022-12-08T22:28:34;16.80;72.20
29775;DHT22;16676;51.202;6.774;2022-12-08T22:32:36;16.80;72.20
29775;DHT22;16676;51.202;6.774;2022-12-08T22:36:38;16.80;72.30
29775;DHT22;16676;51.202;6.774;2022-12-08T22:40:41;16.70;72.20
29775;DHT22;16676;51.202;6.774;2022-12-08T22:44:45;16.70;72.40
29775;DHT22;16676;51.202;6.774;2022-12-08T22:48:47;16.70;72.50
29775;DHT22;16676;51.202;6.774;2022-12-08T22:52:49;16.70;72.50
29775;DHT22;16676;51.202;6.774;2022-12-08T22:56:51;16.70;72.40
29775;DHT22;16676;51.202;6.774;2022-12-08T23:00:54;16.70;72.60
29775;DHT22;16676;51.202;6.774;2022-12-08T23:04:56;16.60;72.80
29775;DHT22;16676;51.202;6.774;2022-12-08T23:08:58;16.60;72.90
29775;DHT22;16676;51.202;6.774;2022-12-08T23:13:00;16.50;72.90
29775;DHT22;16676;51.202;6.774;2022-12-08T23:17:04;16.50;73.00
29775;DHT22;16676;51.202;6.774;2022-12-08T23:21:08;16.50;73.10
29775;DHT22;16676;51.202;6.774;2022-12-08T23:25:10;16.40;73.10
29775;DHT22;16676;51.202;6.774;2022-12-08T23:29:12;16.40;73.40
29775;DHT22;16676;51.202;6.774;2022-12-08T23:33:15;16.40;73.50
29775;DHT22;16676;51.202;6.774;2022-12-08T23:37:17;16.40;73.10
29775;DHT22;16676;51.202;6.774;2022-12-08T23:41:19;16.40;73.40
29775;DHT22;16676;51.202;6.774;2022-12-08T23:45:21;16.30;73.40
29775;DHT22;16676;51.202;6.774;2022-12-08T23:49:25;16.30;74.20
29775;DHT22;16676;51.202;6.774;2022-12-08T23:53:28;16.30;73.50
29775;DHT22;16676;51.202;6.774;2022-12-08T23:57:30;16.30;73.80
